Scout — WCZ2046 — position and weather

sailwx.info

Track history (hours):
 
Tides and Currents Weather Stations Pressure Air Temp Water Temp Dewpoint Dewpoint Depression Visibility Wind Speed Wind Dir Waves Ship Positions

Scout

Owner: Crowley Marine Services, SEATTLE, WA. More information available from US FCC via Universal Licensing System and Coast Guard Vessel Documentation Center.

Last reported at 2015-Aug-29 12:14 UTC. Time now 2015-Aug-29 12:39 UTC.
Position N 32°42' W 117°09'.

; draft 5.6 m.

Type: Tug. MMSI: 366764730.

Date/timePositionNaut miles runAvg speedWind from/ knotsBaromVisibWave heightAir tempDewpointWater temp
2015-Aug-29 12:14N 32°42' W 117°09'0 0.0
2015-Aug-29 10:32N 32°42' W 117°09'0 0.0
2015-Aug-29 09:32N 32°42' W 117°09'0 0.0
2015-Aug-29 08:19N 32°42' W 117°09'0 0.0
2015-Aug-29 05:25N 32°42' W 117°09'0 0.0
2015-Aug-29 04:31N 32°42' W 117°09'0 0.0
2015-Aug-29 03:04N 32°42' W 117°09'0 0.0
2015-Aug-29 02:29N 32°42' W 117°09'0 0.0
2015-Aug-29 01:31N 32°42' W 117°09'0 0.0
2015-Aug-28 23:25N 32°42' W 117°09'0 0.0
2015-Aug-28 22:23N 32°42' W 117°09'0 0.0
2015-Aug-28 20:29N 32°42' W 117°09'3 3.3
2015-Aug-28 19:33N 32°43' W 117°12'4 3.5
2015-Aug-28 18:33N 32°41' W 117°09'0 0.4
2015-Aug-28 17:30N 32°41' W 117°08'0 0.0
2015-Aug-28 13:11N 32°41' W 117°08'0 0.3
2015-Aug-28 12:18N 32°41' W 117°08'0 0.1
2015-Aug-28 11:33N 32°41' W 117°08'1 0.6
2015-Aug-28 10:16N 32°42' W 117°09'0 0.0
2015-Aug-28 08:18N 32°42' W 117°09'0 0.0
2015-Aug-28 07:30N 32°42' W 117°09'0 0.0
2015-Aug-28 06:10N 32°42' W 117°09'0 0.0
2015-Aug-28 05:04N 32°42' W 117°09'0 0.0
2015-Aug-28 04:32N 32°42' W 117°09'0 0.0
2015-Aug-28 03:33N 32°42' W 117°09'0 0.0
2015-Aug-28 00:32N 32°42' W 117°09'1 0.6
2015-Aug-27 22:26N 32°41' W 117°08'2 0.9
2015-Aug-27 20:33N 32°42' W 117°10'1 1.4
2015-Aug-27 19:31N 32°43' W 117°11'2 0.2
2015-Aug-27 11:19N 32°42' W 117°09'0 0.0
2015-Aug-27 10:32N 32°42' W 117°09'0 0.0
2015-Aug-27 09:32N 32°42' W 117°09'0 0.0
2015-Aug-27 07:14N 32°42' W 117°09'0 0.0
2015-Aug-27 06:34N 32°42' W 117°09'3 3.3
2015-Aug-27 05:33N 32°39' W 117°07'3 0.8
2015-Aug-27 01:05N 32°42' W 117°09'1 1.7
2015-Aug-27 00:34N 32°42' W 117°10'1 1.0
2015-Aug-26 23:33N 32°42' W 117°09'0 0.0
2015-Aug-26 22:32N 32°42' W 117°09'0 0.0
2015-Aug-26 21:33N 32°42' W 117°09'0 0.0
2015-Aug-26 20:34N 32°42' W 117°09'0 0.0
2015-Aug-26 17:25N 32°42' W 117°09'0 0.2
2015-Aug-26 16:33N 32°42' W 117°09'2 2.3
2015-Aug-26 15:34N 32°40' W 117°08'0 0.2
2015-Aug-26 14:34N 32°40' W 117°07'3 2.5
2015-Aug-26 13:33N 32°42' W 117°09'0 0.0
2015-Aug-26 12:30N 32°42' W 117°09'0 0.0
2015-Aug-26 11:34N 32°42' W 117°09'3 3.0
2015-Aug-26 10:34N 32°39' W 117°07'3 3.0
2015-Aug-26 09:32N 32°42' W 117°09'0 0.0
2015-Aug-26 08:33N 32°42' W 117°09'0 0.0
2015-Aug-26 07:32N 32°42' W 117°09'0 0.0
2015-Aug-26 06:33N 32°42' W 117°09'0 0.0
2015-Aug-26 05:15N 32°42' W 117°09'0 0.0
2015-Aug-26 04:22N 32°42' W 117°09'0 0.0
2015-Aug-26 03:33N 32°42' W 117°09'0 0.0
2015-Aug-26 01:13N 32°42' W 117°09'0 0.0
2015-Aug-25 22:30N 32°42' W 117°09'0 0.0
2015-Aug-25 21:34N 32°42' W 117°09'0 0.0
2015-Aug-25 20:33N 32°42' W 117°09'0 0.1
2015-Aug-25 19:33N 32°42' W 117°09'0 0.0
2015-Aug-25 18:15N 32°42' W 117°09'0 0.1
2015-Aug-25 17:24N 32°42' W 117°09'0 0.1
2015-Aug-25 16:33N 32°42' W 117°09'0 0.0
2015-Aug-25 15:29N 32°42' W 117°09'0 0.0
2015-Aug-25 14:32N 32°42' W 117°09'0 0.0
2015-Aug-25 13:26N 32°42' W 117°09'0 0.0
2015-Aug-25 12:30N 32°42' W 117°09'0 0.0
2015-Aug-25 11:27N 32°42' W 117°09'0 0.0
2015-Aug-25 10:29N 32°42' W 117°09'0 0.0
2015-Aug-25 09:28N 32°42' W 117°09'0 0.0
2015-Aug-25 08:18N 32°42' W 117°09'0 0.0
2015-Aug-25 07:28N 32°42' W 117°09'0 0.0
2015-Aug-25 06:34N 32°42' W 117°09'3 2.9
2015-Aug-25 05:34N 32°39' W 117°07'3 2.8
2015-Aug-25 04:32N 32°42' W 117°09'0 0.0
2015-Aug-25 03:33N 32°42' W 117°09'0 0.0
2015-Aug-25 02:33N 32°42' W 117°09'0 0.0
2015-Aug-25 01:33N 32°42' W 117°09'3 2.9
2015-Aug-25 00:34N 32°39' W 117°07'0 0.5
2015-Aug-24 23:33N 32°39' W 117°07'3 3.4
2015-Aug-24 22:34N 32°42' W 117°09'0 0.0
2015-Aug-24 21:30N 32°42' W 117°09'2 2.0
2015-Aug-24 20:34N 32°40' W 117°08'2 1.9
2015-Aug-24 19:33N 32°42' W 117°09'0 0.0
2015-Aug-24 18:34N 32°42' W 117°09'0 0.0
2015-Aug-24 17:33N 32°42' W 117°09'0 0.0
2015-Aug-24 16:34N 32°42' W 117°09'3 3.0
2015-Aug-24 15:33N 32°39' W 117°07'3 2.6
2015-Aug-24 14:23N 32°42' W 117°09'0 0.0
2015-Aug-24 13:34N 32°42' W 117°09'3 2.8
2015-Aug-24 12:33N 32°39' W 117°07'3 2.9
2015-Aug-24 11:33N 32°42' W 117°09'0 0.0
2015-Aug-24 10:34N 32°42' W 117°09'3 3.2
2015-Aug-24 09:31N 32°39' W 117°07'3 1.6
2015-Aug-24 07:26N 32°42' W 117°09'0 0.0
2015-Aug-24 06:11N 32°42' W 117°09'0 0.0
2015-Aug-24 05:20N 32°42' W 117°09'0 0.0
2015-Aug-24 04:12N 32°42' W 117°09'0 0.0
2015-Aug-24 03:21N 32°42' W 117°09'0 0.0
2015-Aug-24 02:27N 32°42' W 117°09'0 0.0
2015-Aug-24 01:32N 32°42' W 117°09'0 0.0
2015-Aug-24 00:33N 32°42' W 117°09'3 3.1
2015-Aug-23 23:33N 32°39' W 117°07'3 3.0
2015-Aug-23 22:32N 32°42' W 117°09'0 0.0
2015-Aug-23 21:33N 32°42' W 117°09'0 0.0
2015-Aug-23 20:34N 32°42' W 117°09'0 0.0
2015-Aug-23 19:28N 32°42' W 117°09'0 0.0
2015-Aug-23 18:31N 32°42' W 117°09'0 0.0
2015-Aug-23 17:29N 32°42' W 117°09'0 0.0
2015-Aug-23 16:33N 32°42' W 117°09'0 0.0
2015-Aug-23 14:19N 32°42' W 117°09'3 3.5
2015-Aug-23 13:32N 32°39' W 117°07'1 0.5
2015-Aug-23 12:26N 32°39' W 117°07'3 1.1
2015-Aug-23 09:33N 32°42' W 117°09'0 0.0
2015-Aug-23 07:33N 32°42' W 117°09'0 0.0
2015-Aug-23 05:21N 32°42' W 117°09'0 0.0
2015-Aug-23 04:30N 32°42' W 117°09'0 0.0
2015-Aug-23 03:33N 32°42' W 117°09'0 0.0
2015-Aug-23 02:34N 32°42' W 117°09'0 0.0
2015-Aug-23 01:30N 32°42' W 117°09'0 0.0
2015-Aug-22 23:32N 32°42' W 117°09'0 0.0
2015-Aug-22 22:32N 32°42' W 117°09'0 0.0
2015-Aug-22 21:33N 32°42' W 117°09'0 0.0
2015-Aug-22 20:33N 32°42' W 117°09'0 0.0
2015-Aug-22 19:33N 32°42' W 117°09'0 0.0
2015-Aug-22 18:33N 32°42' W 117°09'0 0.0
2015-Aug-22 17:28N 32°42' W 117°09'0 0.0
2015-Aug-22 16:34N 32°42' W 117°09'0 0.0
2015-Aug-22 15:34N 32°42' W 117°09'0 0.0
2015-Aug-22 14:26N 32°42' W 117°09'0 0.0
2015-Aug-22 13:34N 32°42' W 117°09'0 0.0
2015-Aug-22 12:34N 32°42' W 117°09'0 0.0
2015-Aug-22 11:33N 32°42' W 117°09'0 0.0
2015-Aug-22 10:33N 32°42' W 117°09'0 0.0
2015-Aug-22 09:32N 32°42' W 117°09'0 0.0
2015-Aug-22 08:31N 32°42' W 117°09'0 0.0
2015-Aug-22 07:29N 32°42' W 117°09'0 0.0
2015-Aug-22 06:30N 32°42' W 117°09'0 0.0
2015-Aug-22 05:31N 32°42' W 117°09'0 0.0
2015-Aug-22 04:32N 32°42' W 117°09'0 0.0
2015-Aug-22 03:33N 32°42' W 117°09'0 0.0
2015-Aug-22 02:33N 32°42' W 117°09'0 0.0
2015-Aug-22 01:32N 32°42' W 117°09'0 0.0
2015-Aug-22 00:32N 32°42' W 117°09'1 0.6
2015-Aug-21 23:34N 32°42' W 117°10'1 0.6
2015-Aug-21 22:34N 32°42' W 117°09'0 0.0
2015-Aug-21 21:32N 32°42' W 117°09'0 0.0
2015-Aug-21 20:33N 32°42' W 117°09'0 0.0
2015-Aug-21 19:34N 32°42' W 117°09'0 0.0
2015-Aug-21 18:30N 32°42' W 117°09'0 0.0
2015-Aug-21 17:31N 32°42' W 117°09'0 0.0
2015-Aug-21 16:33N 32°42' W 117°09'0 0.0
2015-Aug-21 15:33N 32°42' W 117°09'0 0.0
2015-Aug-21 14:34N 32°42' W 117°09'0 0.0
2015-Aug-21 13:33N 32°42' W 117°09'0 0.0
2015-Aug-21 12:33N 32°42' W 117°09'0 0.0
2015-Aug-21 11:33N 32°42' W 117°09'0 0.0
2015-Aug-21 10:31N 32°42' W 117°09'0 0.0
2015-Aug-21 09:32N 32°42' W 117°09'0 0.0
2015-Aug-21 08:34N 32°42' W 117°09'0 0.0
2015-Aug-21 07:33N 32°42' W 117°09'0 0.3
2015-Aug-21 06:31N 32°41' W 117°09'1 0.6
2015-Aug-21 05:34N 32°41' W 117°08'0 0.4
2015-Aug-21 04:34N 32°41' W 117°09'0 0.3
2015-Aug-21 03:33N 32°41' W 117°09'0 0.3
2015-Aug-21 02:33N 32°42' W 117°09'0 0.0
2015-Aug-21 01:33N 32°42' W 117°09'0 0.0
2015-Aug-21 00:32N 32°42' W 117°09'3 3.5
2015-Aug-20 23:34N 32°39' W 117°07'3 3.3
2015-Aug-20 22:33N 32°42' W 117°09'0 0.0
2015-Aug-20 21:27N 32°42' W 117°09'0 0.0
2015-Aug-20 20:29N 32°42' W 117°09'0 0.0
2015-Aug-20 19:33N 32°42' W 117°09'0 0.0
2015-Aug-20 18:32N 32°42' W 117°09'0 0.0
2015-Aug-20 17:33N 32°42' W 117°09'0 0.0
2015-Aug-20 16:34N 32°42' W 117°09'0 0.0
2015-Aug-20 15:33N 32°42' W 117°09'0 0.0
2015-Aug-20 14:31N 32°42' W 117°09'0 0.0
2015-Aug-20 13:33N 32°42' W 117°09'0 0.0
2015-Aug-20 12:34N 32°42' W 117°09'0 0.0
2015-Aug-20 11:34N 32°42' W 117°09'0 0.0
2015-Aug-20 10:34N 32°42' W 117°09'0 0.0
2015-Aug-20 09:33N 32°42' W 117°09'0 0.0
2015-Aug-20 08:32N 32°42' W 117°09'0 0.0
2015-Aug-20 07:33N 32°42' W 117°09'0 0.0
2015-Aug-20 06:34N 32°42' W 117°09'0 0.0
2015-Aug-20 05:34N 32°42' W 117°09'0 0.0
2015-Aug-20 04:34N 32°42' W 117°09'0 0.0
2015-Aug-20 03:33N 32°42' W 117°09'3 2.9
2015-Aug-20 02:26N 32°39' W 117°07'3 3.7
2015-Aug-20 01:32N 32°42' W 117°09'0 0.0
2015-Aug-20 00:33N 32°42' W 117°09'2 2.0
2015-Aug-19 23:34N 32°40' W 117°08'2 1.7
2015-Aug-19 22:24N 32°42' W 117°09'0 0.0
2015-Aug-19 21:30N 32°42' W 117°09'0 0.0
2015-Aug-19 20:29N 32°42' W 117°09'0 0.0
2015-Aug-19 19:33N 32°42' W 117°09'0 0.0
2015-Aug-19 18:33N 32°42' W 117°09'0 0.0
2015-Aug-19 17:32N 32°42' W 117°09'0 0.0
2015-Aug-19 16:33N 32°42' W 117°09'0 0.0
2015-Aug-19 15:33N 32°42' W 117°09'0 0.0
2015-Aug-19 14:32N 32°42' W 117°09'0 0.0
2015-Aug-19 13:33N 32°42' W 117°09'0 0.0
2015-Aug-19 12:33N 32°42' W 117°09'  
Track history (hours):
 
Tides and Currents Weather Stations Pressure Air Temp Water Temp Dewpoint Dewpoint Depression Visibility Wind Speed Wind Dir Waves Ship Positions

Scout

Owner: Crowley Marine Services, SEATTLE, WA. More information available from US FCC via Universal Licensing System and Coast Guard Vessel Documentation Center.

Last reported at 2015-Aug-29 12:14 UTC. Time now 2015-Aug-29 12:39 UTC.
Position N 32°42' W 117°09'.

; draft 5.6 m.

Type: Tug. MMSI: 366764730.

Date/timePositionNaut miles runAvg speedWind from/ knotsBaromVisibWave heightAir tempDewpointWater temp
2015-Aug-29 12:14N 32°42' W 117°09'0 0.0
2015-Aug-29 10:32N 32°42' W 117°09'0 0.0
2015-Aug-29 09:32N 32°42' W 117°09'0 0.0
2015-Aug-29 08:19N 32°42' W 117°09'0 0.0
2015-Aug-29 05:25N 32°42' W 117°09'0 0.0
2015-Aug-29 04:31N 32°42' W 117°09'0 0.0
2015-Aug-29 03:04N 32°42' W 117°09'0 0.0
2015-Aug-29 02:29N 32°42' W 117°09'0 0.0
2015-Aug-29 01:31N 32°42' W 117°09'0 0.0
2015-Aug-28 23:25N 32°42' W 117°09'0 0.0
2015-Aug-28 22:23N 32°42' W 117°09'0 0.0
2015-Aug-28 20:29N 32°42' W 117°09'3 3.3
2015-Aug-28 19:33N 32°43' W 117°12'4 3.5
2015-Aug-28 18:33N 32°41' W 117°09'0 0.4
2015-Aug-28 17:30N 32°41' W 117°08'0 0.0
2015-Aug-28 13:11N 32°41' W 117°08'0 0.3
2015-Aug-28 12:18N 32°41' W 117°08'0 0.1
2015-Aug-28 11:33N 32°41' W 117°08'1 0.6
2015-Aug-28 10:16N 32°42' W 117°09'0 0.0
2015-Aug-28 08:18N 32°42' W 117°09'0 0.0
2015-Aug-28 07:30N 32°42' W 117°09'0 0.0
2015-Aug-28 06:10N 32°42' W 117°09'0 0.0
2015-Aug-28 05:04N 32°42' W 117°09'0 0.0
2015-Aug-28 04:32N 32°42' W 117°09'0 0.0
2015-Aug-28 03:33N 32°42' W 117°09'0 0.0
2015-Aug-28 00:32N 32°42' W 117°09'1 0.6
2015-Aug-27 22:26N 32°41' W 117°08'2 0.9
2015-Aug-27 20:33N 32°42' W 117°10'1 1.4
2015-Aug-27 19:31N 32°43' W 117°11'2 0.2
2015-Aug-27 11:19N 32°42' W 117°09'0 0.0
2015-Aug-27 10:32N 32°42' W 117°09'0 0.0
2015-Aug-27 09:32N 32°42' W 117°09'0 0.0
2015-Aug-27 07:14N 32°42' W 117°09'0 0.0
2015-Aug-27 06:34N 32°42' W 117°09'3 3.3
2015-Aug-27 05:33N 32°39' W 117°07'3 0.8
2015-Aug-27 01:05N 32°42' W 117°09'1 1.7
2015-Aug-27 00:34N 32°42' W 117°10'1 1.0
2015-Aug-26 23:33N 32°42' W 117°09'0 0.0
2015-Aug-26 22:32N 32°42' W 117°09'0 0.0
2015-Aug-26 21:33N 32°42' W 117°09'0 0.0
2015-Aug-26 20:34N 32°42' W 117°09'0 0.0
2015-Aug-26 17:25N 32°42' W 117°09'0 0.2
2015-Aug-26 16:33N 32°42' W 117°09'2 2.3
2015-Aug-26 15:34N 32°40' W 117°08'0 0.2
2015-Aug-26 14:34N 32°40' W 117°07'3 2.5
2015-Aug-26 13:33N 32°42' W 117°09'0 0.0
2015-Aug-26 12:30N 32°42' W 117°09'0 0.0
2015-Aug-26 11:34N 32°42' W 117°09'3 3.0
2015-Aug-26 10:34N 32°39' W 117°07'3 3.0
2015-Aug-26 09:32N 32°42' W 117°09'0 0.0
2015-Aug-26 08:33N 32°42' W 117°09'0 0.0
2015-Aug-26 07:32N 32°42' W 117°09'0 0.0
2015-Aug-26 06:33N 32°42' W 117°09'0 0.0
2015-Aug-26 05:15N 32°42' W 117°09'0 0.0
2015-Aug-26 04:22N 32°42' W 117°09'0 0.0
2015-Aug-26 03:33N 32°42' W 117°09'0 0.0
2015-Aug-26 01:13N 32°42' W 117°09'0 0.0
2015-Aug-25 22:30N 32°42' W 117°09'0 0.0
2015-Aug-25 21:34N 32°42' W 117°09'0 0.0
2015-Aug-25 20:33N 32°42' W 117°09'0 0.1
2015-Aug-25 19:33N 32°42' W 117°09'0 0.0
2015-Aug-25 18:15N 32°42' W 117°09'0 0.1
2015-Aug-25 17:24N 32°42' W 117°09'0 0.1
2015-Aug-25 16:33N 32°42' W 117°09'0 0.0
2015-Aug-25 15:29N 32°42' W 117°09'0 0.0
2015-Aug-25 14:32N 32°42' W 117°09'0 0.0
2015-Aug-25 13:26N 32°42' W 117°09'0 0.0
2015-Aug-25 12:30N 32°42' W 117°09'0 0.0
2015-Aug-25 11:27N 32°42' W 117°09'0 0.0
2015-Aug-25 10:29N 32°42' W 117°09'0 0.0
2015-Aug-25 09:28N 32°42' W 117°09'0 0.0
2015-Aug-25 08:18N 32°42' W 117°09'0 0.0
2015-Aug-25 07:28N 32°42' W 117°09'0 0.0
2015-Aug-25 06:34N 32°42' W 117°09'3 2.9
2015-Aug-25 05:34N 32°39' W 117°07'3 2.8
2015-Aug-25 04:32N 32°42' W 117°09'0 0.0
2015-Aug-25 03:33N 32°42' W 117°09'0 0.0
2015-Aug-25 02:33N 32°42' W 117°09'0 0.0
2015-Aug-25 01:33N 32°42' W 117°09'3 2.9
2015-Aug-25 00:34N 32°39' W 117°07'0 0.5
2015-Aug-24 23:33N 32°39' W 117°07'3 3.4
2015-Aug-24 22:34N 32°42' W 117°09'0 0.0
2015-Aug-24 21:30N 32°42' W 117°09'2 2.0
2015-Aug-24 20:34N 32°40' W 117°08'2 1.9
2015-Aug-24 19:33N 32°42' W 117°09'0 0.0
2015-Aug-24 18:34N 32°42' W 117°09'0 0.0
2015-Aug-24 17:33N 32°42' W 117°09'0 0.0
2015-Aug-24 16:34N 32°42' W 117°09'3 3.0
2015-Aug-24 15:33N 32°39' W 117°07'3 2.6
2015-Aug-24 14:23N 32°42' W 117°09'0 0.0
2015-Aug-24 13:34N 32°42' W 117°09'3 2.8
2015-Aug-24 12:33N 32°39' W 117°07'3 2.9
2015-Aug-24 11:33N 32°42' W 117°09'0 0.0
2015-Aug-24 10:34N 32°42' W 117°09'3 3.2
2015-Aug-24 09:31N 32°39' W 117°07'3 1.6
2015-Aug-24 07:26N 32°42' W 117°09'0 0.0
2015-Aug-24 06:11N 32°42' W 117°09'0 0.0
2015-Aug-24 05:20N 32°42' W 117°09'0 0.0
2015-Aug-24 04:12N 32°42' W 117°09'0 0.0
2015-Aug-24 03:21N 32°42' W 117°09'0 0.0
2015-Aug-24 02:27N 32°42' W 117°09'0 0.0
2015-Aug-24 01:32N 32°42' W 117°09'0 0.0
2015-Aug-24 00:33N 32°42' W 117°09'3 3.1
2015-Aug-23 23:33N 32°39' W 117°07'3 3.0
2015-Aug-23 22:32N 32°42' W 117°09'0 0.0
2015-Aug-23 21:33N 32°42' W 117°09'0 0.0
2015-Aug-23 20:34N 32°42' W 117°09'0 0.0
2015-Aug-23 19:28N 32°42' W 117°09'0 0.0
2015-Aug-23 18:31N 32°42' W 117°09'0 0.0
2015-Aug-23 17:29N 32°42' W 117°09'0 0.0
2015-Aug-23 16:33N 32°42' W 117°09'0 0.0
2015-Aug-23 14:19N 32°42' W 117°09'3 3.5
2015-Aug-23 13:32N 32°39' W 117°07'1 0.5
2015-Aug-23 12:26N 32°39' W 117°07'3 1.1
2015-Aug-23 09:33N 32°42' W 117°09'0 0.0
2015-Aug-23 07:33N 32°42' W 117°09'0 0.0
2015-Aug-23 05:21N 32°42' W 117°09'0 0.0
2015-Aug-23 04:30N 32°42' W 117°09'0 0.0
2015-Aug-23 03:33N 32°42' W 117°09'0 0.0
2015-Aug-23 02:34N 32°42' W 117°09'0 0.0
2015-Aug-23 01:30N 32°42' W 117°09'0 0.0
2015-Aug-22 23:32N 32°42' W 117°09'0 0.0
2015-Aug-22 22:32N 32°42' W 117°09'0 0.0
2015-Aug-22 21:33N 32°42' W 117°09'0 0.0
2015-Aug-22 20:33N 32°42' W 117°09'0 0.0
2015-Aug-22 19:33N 32°42' W 117°09'0 0.0
2015-Aug-22 18:33N 32°42' W 117°09'0 0.0
2015-Aug-22 17:28N 32°42' W 117°09'0 0.0
2015-Aug-22 16:34N 32°42' W 117°09'0 0.0
2015-Aug-22 15:34N 32°42' W 117°09'0 0.0
2015-Aug-22 14:26N 32°42' W 117°09'0 0.0
2015-Aug-22 13:34N 32°42' W 117°09'0 0.0
2015-Aug-22 12:34N 32°42' W 117°09'0 0.0
2015-Aug-22 11:33N 32°42' W 117°09'0 0.0
2015-Aug-22 10:33N 32°42' W 117°09'0 0.0
2015-Aug-22 09:32N 32°42' W 117°09'0 0.0
2015-Aug-22 08:31N 32°42' W 117°09'0 0.0
2015-Aug-22 07:29N 32°42' W 117°09'0 0.0
2015-Aug-22 06:30N 32°42' W 117°09'0 0.0
2015-Aug-22 05:31N 32°42' W 117°09'0 0.0
2015-Aug-22 04:32N 32°42' W 117°09'0 0.0
2015-Aug-22 03:33N 32°42' W 117°09'0 0.0
2015-Aug-22 02:33N 32°42' W 117°09'0 0.0
2015-Aug-22 01:32N 32°42' W 117°09'0 0.0
2015-Aug-22 00:32N 32°42' W 117°09'1 0.6
2015-Aug-21 23:34N 32°42' W 117°10'1 0.6
2015-Aug-21 22:34N 32°42' W 117°09'0 0.0
2015-Aug-21 21:32N 32°42' W 117°09'0 0.0
2015-Aug-21 20:33N 32°42' W 117°09'0 0.0
2015-Aug-21 19:34N 32°42' W 117°09'0 0.0
2015-Aug-21 18:30N 32°42' W 117°09'0 0.0
2015-Aug-21 17:31N 32°42' W 117°09'0 0.0
2015-Aug-21 16:33N 32°42' W 117°09'0 0.0
2015-Aug-21 15:33N 32°42' W 117°09'0 0.0
2015-Aug-21 14:34N 32°42' W 117°09'0 0.0
2015-Aug-21 13:33N 32°42' W 117°09'0 0.0
2015-Aug-21 12:33N 32°42' W 117°09'0 0.0
2015-Aug-21 11:33N 32°42' W 117°09'0 0.0
2015-Aug-21 10:31N 32°42' W 117°09'0 0.0
2015-Aug-21 09:32N 32°42' W 117°09'0 0.0
2015-Aug-21 08:34N 32°42' W 117°09'0 0.0
2015-Aug-21 07:33N 32°42' W 117°09'0 0.3
2015-Aug-21 06:31N 32°41' W 117°09'1 0.6
2015-Aug-21 05:34N 32°41' W 117°08'0 0.4
2015-Aug-21 04:34N 32°41' W 117°09'0 0.3
2015-Aug-21 03:33N 32°41' W 117°09'0 0.3
2015-Aug-21 02:33N 32°42' W 117°09'0 0.0
2015-Aug-21 01:33N 32°42' W 117°09'0 0.0
2015-Aug-21 00:32N 32°42' W 117°09'3 3.5
2015-Aug-20 23:34N 32°39' W 117°07'3 3.3
2015-Aug-20 22:33N 32°42' W 117°09'0 0.0
2015-Aug-20 21:27N 32°42' W 117°09'0 0.0
2015-Aug-20 20:29N 32°42' W 117°09'0 0.0
2015-Aug-20 19:33N 32°42' W 117°09'0 0.0
2015-Aug-20 18:32N 32°42' W 117°09'0 0.0
2015-Aug-20 17:33N 32°42' W 117°09'0 0.0
2015-Aug-20 16:34N 32°42' W 117°09'0 0.0
2015-Aug-20 15:33N 32°42' W 117°09'0 0.0
2015-Aug-20 14:31N 32°42' W 117°09'0 0.0
2015-Aug-20 13:33N 32°42' W 117°09'0 0.0
2015-Aug-20 12:34N 32°42' W 117°09'0 0.0
2015-Aug-20 11:34N 32°42' W 117°09'0 0.0
2015-Aug-20 10:34N 32°42' W 117°09'0 0.0
2015-Aug-20 09:33N 32°42' W 117°09'0 0.0
2015-Aug-20 08:32N 32°42' W 117°09'0 0.0
2015-Aug-20 07:33N 32°42' W 117°09'0 0.0
2015-Aug-20 06:34N 32°42' W 117°09'0 0.0
2015-Aug-20 05:34N 32°42' W 117°09'0 0.0
2015-Aug-20 04:34N 32°42' W 117°09'0 0.0
2015-Aug-20 03:33N 32°42' W 117°09'3 2.9
2015-Aug-20 02:26N 32°39' W 117°07'3 3.7
2015-Aug-20 01:32N 32°42' W 117°09'0 0.0
2015-Aug-20 00:33N 32°42' W 117°09'2 2.0
2015-Aug-19 23:34N 32°40' W 117°08'2 1.7
2015-Aug-19 22:24N 32°42' W 117°09'0 0.0
2015-Aug-19 21:30N 32°42' W 117°09'0 0.0
2015-Aug-19 20:29N 32°42' W 117°09'0 0.0
2015-Aug-19 19:33N 32°42' W 117°09'0 0.0
2015-Aug-19 18:33N 32°42' W 117°09'0 0.0
2015-Aug-19 17:32N 32°42' W 117°09'0 0.0
2015-Aug-19 16:33N 32°42' W 117°09'0 0.0
2015-Aug-19 15:33N 32°42' W 117°09'0 0.0
2015-Aug-19 14:32N 32°42' W 117°09'0 0.0
2015-Aug-19 13:33N 32°42' W 117°09'0 0.0
2015-Aug-19 12:33N 32°42' W 117°09'  

Dump ship's entire track history